Time;durP1;ratioP1;P1;durP2;ratioP2;P2;SDS_P1;SDS_P2;PMS_P1;PMS_P2;Temp;Humidity;BMP_temperature;BMP_pressure;BME280_temperature;BME280_humidity;BME280_pressure;Samples;Min_cycle;Max_cycle;Signal;HPM_P1;HPM_P2
2022/12/29 00:01:48;;;;;;;3.63;2.53;;;12.20;69.20;;;;;;5037634;28;20192;-83
2022/12/29 00:04:15;;;;;;;2.97;2.43;;;12.30;69.50;;;;;;5035006;28;20724;-84
2022/12/29 00:06:42;;;;;;;4.73;2.60;;;12.30;69.30;;;;;;5040272;28;20191;-85
2022/12/29 00:09:08;;;;;;;4.90;2.37;;;12.30;69.60;;;;;;5044791;28;20221;-83
2022/12/29 00:11:33;;;;;;;2.60;2.10;;;12.30;69.30;;;;;;5044088;28;20200;-83
2022/12/29 00:16:45;;;;;;;2.70;2.33;;;12.20;70.10;;;;;;5039555;28;20234;-83
2022/12/29 00:36:17;;;;;;;2.53;2.33;;;12.20;70.50;;;;;;5039065;28;20272;-84
2022/12/29 00:44:27;;;;;;;2.77;2.40;;;12.20;72.10;;;;;;5039352;28;20199;-84
2022/12/29 00:46:53;;;;;;;2.63;2.27;;;12.10;73.20;;;;;;5042444;28;20247;-84
2022/12/29 00:49:31;;;;;;;2.70;2.37;;;12.10;73.20;;;;;;5042121;28;20195;-83
2022/12/29 00:52:13;;;;;;;2.97;2.47;;;12.00;74.30;;;;;;5038712;28;20255;-84
2022/12/29 00:54:40;;;;;;;3.10;2.60;;;12.00;74.70;;;;;;5038542;28;20197;-83
2022/12/29 00:57:08;;;;;;;2.60;2.40;;;12.10;75.30;;;;;;5045054;28;20240;-84
2022/12/29 00:59:38;;;;;;;2.80;2.50;;;12.00;76.50;;;;;;5035145;28;20206;-85
2022/12/29 01:02:04;;;;;;;3.17;2.73;;;12.00;77.20;;;;;;5053616;28;20214;-85
2022/12/29 01:04:30;;;;;;;3.97;2.70;;;11.90;78.40;;;;;;5038588;28;20178;-84
2022/12/29 01:06:55;;;;;;;2.90;2.60;;;11.80;77.50;;;;;;5047269;28;20198;-84
2022/12/29 01:12:07;;;;;;;2.53;2.33;;;11.70;77.70;;;;;;5090943;28;20169;-85
2022/12/29 01:14:33;;;;;;;2.57;2.37;;;11.70;78.60;;;;;;5105777;28;20187;-84
2022/12/29 01:16:59;;;;;;;3.90;2.43;;;11.80;77.80;;;;;;5103351;28;20235;-84
2022/12/29 01:19:25;;;;;;;3.73;2.73;;;11.70;79.00;;;;;;5099283;28;20201;-84
2022/12/29 01:21:51;;;;;;;3.43;2.43;;;11.70;78.10;;;;;;5094230;28;20192;-85
2022/12/29 01:24:18;;;;;;;3.13;2.80;;;11.70;78.00;;;;;;5078616;28;20311;-84
2022/12/29 01:26:45;;;;;;;4.77;2.70;;;11.70;78.20;;;;;;5093512;28;20281;-84
2022/12/29 01:29:11;;;;;;;3.70;2.80;;;11.70;78.80;;;;;;5072990;28;20202;-84
2022/12/29 01:31:37;;;;;;;4.30;2.60;;;11.90;77.20;;;;;;5079615;28;20198;-84
2022/12/29 01:34:03;;;;;;;4.93;2.43;;;11.70;78.20;;;;;;5085210;28;20217;-83
2022/12/29 01:36:29;;;;;;;3.63;2.67;;;11.70;78.40;;;;;;5089263;28;20924;-84
2022/12/29 01:38:55;;;;;;;2.93;2.50;;;11.70;78.10;;;;;;5089764;28;20190;-85
2022/12/29 01:41:21;;;;;;;2.77;2.57;;;11.90;77.50;;;;;;5098993;28;20278;-85
2022/12/29 01:43:50;;;;;;;2.93;2.53;;;11.70;77.90;;;;;;5087448;28;20636;-84
2022/12/29 01:46:28;;;;;;;2.80;2.60;;;11.70;79.10;;;;;;5102420;28;20560;-84
2022/12/29 01:48:59;;;;;;;3.70;2.43;;;11.70;79.00;;;;;;5093931;28;20168;-84
2022/12/29 01:51:28;;;;;;;4.37;2.67;;;11.80;77.40;;;;;;5085971;28;20225;-84
2022/12/29 01:53:57;;;;;;;2.93;2.63;;;11.80;78.70;;;;;;5083858;28;20201;-85
2022/12/29 01:56:23;;;;;;;2.83;2.53;;;11.70;78.60;;;;;;5082320;28;20203;-84
2022/12/29 01:59:15;;;;;;;3.80;2.73;;;11.80;77.90;;;;;;5084029;28;20210;-83
2022/12/29 02:01:41;;;;;;;4.67;2.67;;;11.70;78.60;;;;;;5089318;28;20181;-84
2022/12/29 02:04:09;;;;;;;3.87;2.47;;;11.70;79.00;;;;;;5090464;28;20179;-83
2022/12/29 02:06:44;;;;;;;2.47;2.27;;;11.70;78.00;;;;;;5093319;28;20182;-84
2022/12/29 02:09:09;;;;;;;3.67;2.90;;;11.80;78.90;;;;;;5087944;28;20177;-84
2022/12/29 02:11:36;;;;;;;3.13;2.87;;;11.70;78.40;;;;;;5079386;28;20212;-83
2022/12/29 02:14:05;;;;;;;4.50;2.73;;;11.80;77.10;;;;;;5076339;28;20180;-84
2022/12/29 02:16:49;;;;;;;3.63;2.60;;;11.70;78.60;;;;;;5089672;28;20198;-84
2022/12/29 02:19:29;;;;;;;2.73;2.53;;;11.70;78.70;;;;;;5072354;28;20202;-84
2022/12/29 02:22:01;;;;;;;3.20;2.90;;;11.90;76.60;;;;;;5087353;28;20280;-85
2022/12/29 02:24:51;;;;;;;2.83;2.37;;;11.90;76.40;;;;;;5079494;28;20194;-84
2022/12/29 02:27:30;;;;;;;3.77;2.50;;;11.70;76.40;;;;;;5078511;28;20190;-83
2022/12/29 02:30:10;;;;;;;2.30;2.10;;;11.70;77.50;;;;;;5074237;28;20611;-83
2022/12/29 02:32:39;;;;;;;3.20;2.60;;;11.80;76.80;;;;;;5078380;28;20224;-83
2022/12/29 02:35:43;;;;;;;3.23;2.60;;;11.70;77.30;;;;;;5083369;28;20188;-83
2022/12/29 02:38:45;;;;;;;2.90;2.50;;;11.70;77.70;;;;;;4989781;28;20231;-83
2022/12/29 02:41:19;;;;;;;3.73;2.30;;;11.70;77.10;;;;;;5079184;28;20266;-83
2022/12/29 02:44:03;;;;;;;4.03;2.40;;;11.70;78.00;;;;;;5087611;28;20284;-82
2022/12/29 02:46:29;;;;;;;4.23;2.23;;;11.70;78.60;;;;;;5087027;28;20189;-84
2022/12/29 02:49:14;;;;;;;4.47;2.43;;;11.60;78.80;;;;;;5085097;28;20415;-85
2022/12/29 02:51:52;;;;;;;3.27;2.60;;;11.70;78.20;;;;;;5085607;28;20182;-82
2022/12/29 02:54:40;;;;;;;2.97;2.10;;;11.70;78.50;;;;;;5080058;28;20252;-82
2022/12/29 02:57:15;;;;;;;2.10;1.93;;;11.70;80.30;;;;;;5085901;28;20707;-83
2022/12/29 02:59:43;;;;;;;2.67;2.23;;;11.60;81.40;;;;;;5089650;28;20233;-83
2022/12/29 03:02:21;;;;;;;3.53;2.20;;;11.80;80.30;;;;;;5085255;28;20182;-84
2022/12/29 03:04:47;;;;;;;2.53;2.07;;;11.80;78.80;;;;;;5079104;28;20345;-84
2022/12/29 03:07:26;;;;;;;2.60;2.40;;;11.80;79.00;;;;;;5082913;28;20556;-84
2022/12/29 03:10:13;;;;;;;2.10;1.90;;;11.80;79.80;;;;;;5073914;28;20245;-83
2022/12/29 03:16:03;;;;;;;3.23;2.20;;;11.90;77.70;;;;;;5072211;28;20221;-83
2022/12/29 03:18:34;;;;;;;2.27;2.13;;;11.90;77.90;;;;;;5076253;28;20182;-83
2022/12/29 03:22:26;;;;;;;1.90;1.80;;;12.00;77.40;;;;;;5074296;28;20599;-85
2022/12/29 03:24:13;;;;;;;3.37;2.10;;;12.00;77.20;;;;;;5082872;28;20193;-86
2022/12/29 03:26:41;;;;;;;2.40;2.20;;;12.20;75.50;;;;;;5085961;28;20185;-86
2022/12/29 03:29:08;;;;;;;2.30;2.10;;;12.00;77.00;;;;;;5078237;28;20231;-86
2022/12/29 03:31:36;;;;;;;2.97;1.97;;;12.00;74.90;;;;;;5091848;28;20279;-84
2022/12/29 03:34:05;;;;;;;2.23;2.00;;;12.00;75.10;;;;;;5065303;28;20206;-85
2022/12/29 03:36:40;;;;;;;3.50;2.50;;;12.00;74.50;;;;;;5075443;28;20222;-84
2022/12/29 03:39:11;;;;;;;2.63;2.07;;;12.00;74.30;;;;;;5069259;28;20187;-84
2022/12/29 03:41:39;;;;;;;2.27;2.13;;;11.90;75.00;;;;;;5075573;28;20273;-85
2022/12/29 03:44:09;;;;;;;3.50;2.20;;;12.00;74.90;;;;;;5085428;28;20199;-86
2022/12/29 03:46:35;;;;;;;3.00;2.00;;;11.80;75.00;;;;;;5068696;28;20200;-85
2022/12/29 03:49:00;;;;;;;2.53;2.13;;;11.90;74.70;;;;;;5071079;28;20188;-83
2022/12/29 03:51:26;;;;;;;2.40;2.20;;;11.80;74.80;;;;;;5076308;28;20212;-85
2022/12/29 03:53:52;;;;;;;2.53;2.33;;;11.70;75.10;;;;;;5067097;28;20197;-83
2022/12/29 03:56:17;;;;;;;2.50;2.30;;;11.70;75.10;;;;;;5072632;28;20213;-83
2022/12/29 03:58:43;;;;;;;1.97;1.87;;;11.70;75.20;;;;;;5079626;28;20268;-83
2022/12/29 04:01:09;;;;;;;3.20;2.37;;;11.60;75.20;;;;;;5070837;28;20706;-85
2022/12/29 04:03:34;;;;;;;2.37;2.17;;;11.60;75.40;;;;;;5057469;28;20218;-83
2022/12/29 04:06:00;;;;;;;2.47;2.10;;;11.70;75.80;;;;;;5076204;28;20189;-84
2022/12/29 04:08:26;;;;;;;2.33;2.13;;;11.60;75.30;;;;;;5072706;28;20555;-86
2022/12/29 04:10:51;;;;;;;2.30;2.10;;;11.70;75.30;;;;;;5070134;28;20295;-86
2022/12/29 04:13:17;;;;;;;2.50;2.30;;;11.70;75.20;;;;;;5077056;28;20193;-85
2022/12/29 04:15:45;;;;;;;2.60;2.00;;;11.70;74.90;;;;;;5078965;28;20204;-84
2022/12/29 04:18:11;;;;;;;3.23;2.27;;;11.80;75.00;;;;;;5075760;28;20186;-85
2022/12/29 04:23:21;;;;;;;2.63;2.30;;;11.80;73.80;;;;;;5077119;28;20190;-85
2022/12/29 04:25:47;;;;;;;2.50;2.20;;;11.90;73.80;;;;;;5076242;28;20193;-85
2022/12/29 04:28:13;;;;;;;2.83;2.20;;;11.90;73.60;;;;;;5080382;28;20249;-86
2022/12/29 04:30:39;;;;;;;2.40;2.20;;;11.90;73.10;;;;;;5077134;28;20209;-83
2022/12/29 04:33:05;;;;;;;3.90;2.40;;;11.90;73.60;;;;;;5077049;28;20189;-85
2022/12/29 04:35:30;;;;;;;2.23;2.10;;;11.90;73.80;;;;;;5084276;28;20184;-83
2022/12/29 04:37:56;;;;;;;2.47;2.20;;;11.90;73.00;;;;;;5081832;28;20767;-84
2022/12/29 04:40:23;;;;;;;2.20;2.10;;;11.80;73.00;;;;;;5077045;28;20212;-83
2022/12/29 04:42:49;;;;;;;2.50;2.30;;;11.80;73.00;;;;;;5072467;28;20182;-86
2022/12/29 04:45:15;;;;;;;2.47;2.10;;;11.80;73.40;;;;;;5078515;28;20186;-83
2022/12/29 04:47:40;;;;;;;3.13;2.43;;;11.80;73.40;;;;;;5073820;28;20176;-86
2022/12/29 04:50:06;;;;;;;4.13;2.40;;;11.70;73.80;;;;;;5077747;28;20320;-84
2022/12/29 04:52:32;;;;;;;2.60;2.30;;;11.80;73.90;;;;;;5076337;28;20180;-85
2022/12/29 04:54:58;;;;;;;2.53;2.33;;;11.80;73.80;;;;;;5078803;28;20194;-85
2022/12/29 04:57:24;;;;;;;2.97;2.33;;;11.80;73.80;;;;;;5079942;28;20215;-83
2022/12/29 04:59:50;;;;;;;3.03;2.23;;;11.90;73.80;;;;;;5067047;28;20203;-86
2022/12/29 05:02:19;;;;;;;2.80;2.20;;;11.90;73.60;;;;;;5070635;28;20201;-87
2022/12/29 05:04:46;;;;;;;3.77;2.63;;;11.90;74.00;;;;;;5070135;28;20669;-86
2022/12/29 05:07:11;;;;;;;3.10;2.20;;;12.00;73.40;;;;;;5078437;28;20179;-84
2022/12/29 05:09:37;;;;;;;2.80;2.23;;;11.90;73.90;;;;;;5081475;28;20249;-86
2022/12/29 05:12:03;;;;;;;3.33;2.60;;;12.00;73.70;;;;;;5080652;28;20192;-84
2022/12/29 05:14:29;;;;;;;3.00;2.70;;;12.00;73.40;;;;;;5084440;28;20195;-85
2022/12/29 05:16:54;;;;;;;4.03;2.30;;;11.90;74.50;;;;;;5074182;28;20212;-84
2022/12/29 05:19:20;;;;;;;3.33;2.60;;;11.90;74.40;;;;;;5065367;28;20199;-84
2022/12/29 05:21:46;;;;;;;2.90;2.60;;;11.90;75.00;;;;;;5079149;28;20183;-84
2022/12/29 05:24:11;;;;;;;4.77;2.90;;;12.00;74.90;;;;;;5078059;28;20206;-85
2022/12/29 05:26:37;;;;;;;4.47;2.80;;;11.90;75.00;;;;;;5082909;28;20244;-85
2022/12/29 05:29:03;;;;;;;4.10;2.90;;;11.90;75.30;;;;;;5084502;28;20183;-87
2022/12/29 05:31:29;;;;;;;5.77;3.10;;;12.00;74.90;;;;;;5078303;28;20295;-86
2022/12/29 05:33:54;;;;;;;4.73;2.80;;;12.00;75.00;;;;;;5077115;28;20255;-86
2022/12/29 05:36:20;;;;;;;3.10;2.67;;;12.00;75.10;;;;;;5083240;28;20263;-85
2022/12/29 05:38:46;;;;;;;2.77;2.50;;;12.10;74.90;;;;;;5076608;28;20184;-87
2022/12/29 05:41:11;;;;;;;3.93;2.77;;;12.00;75.10;;;;;;5085239;28;20203;-85
2022/12/29 05:43:37;;;;;;;4.03;2.90;;;11.90;76.10;;;;;;5074192;28;20195;-84
2022/12/29 05:46:03;;;;;;;4.77;2.90;;;11.90;76.20;;;;;;5088085;28;20196;-88
2022/12/29 05:48:29;;;;;;;3.67;2.70;;;11.90;76.10;;;;;;5073889;28;20195;-88
2022/12/29 05:50:55;;;;;;;3.90;2.70;;;11.80;76.10;;;;;;5077192;28;20208;-87
2022/12/29 05:53:20;;;;;;;3.17;2.87;;;11.90;75.90;;;;;;5084533;28;20436;-85
2022/12/29 05:55:47;;;;;;;3.07;2.47;;;11.80;76.50;;;;;;5063021;28;20709;-84
2022/12/29 05:58:13;;;;;;;2.87;2.40;;;11.70;77.00;;;;;;5075164;28;20190;-85
2022/12/29 06:00:39;;;;;;;3.17;2.70;;;11.70;77.20;;;;;;5080371;28;20211;-85
2022/12/29 06:03:05;;;;;;;3.07;2.77;;;11.70;77.40;;;;;;5091737;28;20188;-86
2022/12/29 06:05:31;;;;;;;3.27;2.87;;;11.70;77.40;;;;;;5072702;28;20233;-87
2022/12/29 06:07:56;;;;;;;4.90;2.90;;;11.80;76.60;;;;;;5079169;28;20185;-86
2022/12/29 06:10:22;;;;;;;2.50;2.30;;;11.70;76.50;;;;;;5072557;28;20246;-85
2022/12/29 06:12:48;;;;;;;2.63;2.43;;;11.80;76.60;;;;;;5077399;28;20178;-88
2022/12/29 06:15:14;;;;;;;6.73;2.50;;;11.90;74.90;;;;;;5087653;28;20194;-84
2022/12/29 06:17:40;;;;;;;3.13;2.93;;;12.00;74.80;;;;;;5080141;28;20209;-84
2022/12/29 06:20:07;;;;;;;3.27;2.90;;;12.00;75.10;;;;;;5084582;28;20466;-84
2022/12/29 06:22:33;;;;;;;3.57;2.97;;;12.10;74.40;;;;;;5083833;28;20191;-85
2022/12/29 06:24:58;;;;;;;2.97;2.60;;;12.10;74.20;;;;;;5080232;28;20185;-87
2022/12/29 06:27:24;;;;;;;2.83;2.63;;;12.10;73.90;;;;;;5087003;28;20263;-85
2022/12/29 06:29:50;;;;;;;3.00;2.70;;;12.20;73.50;;;;;;5094170;28;20214;-86
2022/12/29 06:32:16;;;;;;;4.73;2.50;;;12.30;72.10;;;;;;5093608;28;20200;-84
2022/12/29 06:34:42;;;;;;;3.43;2.90;;;12.40;71.00;;;;;;5093395;28;20195;-87
2022/12/29 06:37:07;;;;;;;3.80;3.07;;;12.40;71.10;;;;;;5097671;28;20216;-87
2022/12/29 06:39:33;;;;;;;3.20;2.90;;;12.40;71.30;;;;;;5079179;28;20260;-87
2022/12/29 06:41:59;;;;;;;3.80;2.70;;;12.30;71.20;;;;;;5061352;28;20185;-86
2022/12/29 06:44:24;;;;;;;3.93;2.90;;;12.20;71.70;;;;;;5075732;28;20215;-84
2022/12/29 06:46:50;;;;;;;2.60;2.40;;;12.10;72.10;;;;;;5065593;28;20314;-85
2022/12/29 06:49:16;;;;;;;4.63;2.63;;;12.10;71.20;;;;;;5082986;28;20176;-86
2022/12/29 06:51:42;;;;;;;2.60;2.40;;;12.20;71.10;;;;;;5082371;28;20195;-86
2022/12/29 06:54:08;;;;;;;3.07;2.57;;;12.30;70.60;;;;;;5059820;28;20192;-85
2022/12/29 06:56:34;;;;;;;3.90;2.93;;;12.30;70.90;;;;;;5086314;28;20215;-87
2022/12/29 06:59:03;;;;;;;2.70;2.50;;;12.20;71.00;;;;;;5083666;28;20169;-86
2022/12/29 07:01:28;;;;;;;4.27;2.77;;;12.20;70.80;;;;;;5081318;28;20252;-84
2022/12/29 07:03:54;;;;;;;4.17;2.90;;;12.20;70.50;;;;;;5092638;28;20274;-85
2022/12/29 07:06:20;;;;;;;3.20;2.77;;;12.20;70.60;;;;;;5066098;28;20206;-86
2022/12/29 07:08:46;;;;;;;3.30;3.00;;;12.20;70.70;;;;;;5086758;28;20201;-85
2022/12/29 07:11:12;;;;;;;4.30;2.87;;;12.40;69.60;;;;;;5074803;28;20266;-85
2022/12/29 07:13:37;;;;;;;3.10;2.80;;;12.40;69.40;;;;;;5093535;28;20210;-86
2022/12/29 07:16:08;;;;;;;3.93;2.90;;;12.30;69.50;;;;;;5115961;28;20209;-84
2022/12/29 07:18:34;;;;;;;4.23;3.07;;;12.40;69.00;;;;;;5092433;28;20180;-85
2022/12/29 07:21:00;;;;;;;3.23;2.90;;;12.40;68.80;;;;;;5094718;28;20693;-86
2022/12/29 07:23:26;;;;;;;3.43;2.67;;;12.30;69.40;;;;;;5078921;28;20186;-85
2022/12/29 07:26:00;;;;;;;3.23;2.67;;;12.30;69.00;;;;;;5080917;28;20200;-84
2022/12/29 07:28:25;;;;;;;3.10;2.80;;;12.40;68.70;;;;;;5084007;28;20275;-84
2022/12/29 07:30:51;;;;;;;4.30;2.97;;;12.30;69.10;;;;;;5088373;28;20297;-84
2022/12/29 07:33:17;;;;;;;3.30;2.70;;;12.30;69.20;;;;;;5077107;28;20253;-84
2022/12/29 07:35:42;;;;;;;3.47;2.70;;;12.30;68.30;;;;;;5083842;28;20213;-83
2022/12/29 07:38:08;;;;;;;3.00;2.70;;;12.40;68.50;;;;;;5084347;28;20289;-84
2022/12/29 07:40:33;;;;;;;5.33;3.27;;;12.40;68.30;;;;;;5090666;28;20208;-83
2022/12/29 07:42:59;;;;;;;2.87;2.67;;;12.40;67.40;;;;;;5080703;28;20174;-84
2022/12/29 07:45:25;;;;;;;3.90;2.60;;;12.40;67.10;;;;;;5092148;28;20187;-83
2022/12/29 07:47:50;;;;;;;4.33;2.90;;;12.50;67.40;;;;;;5086616;28;20162;-84
2022/12/29 07:50:16;;;;;;;3.27;2.97;;;12.60;67.00;;;;;;5073147;28;20706;-85
2022/12/29 07:52:42;;;;;;;4.50;2.80;;;12.60;66.70;;;;;;5086239;28;20190;-86
2022/12/29 07:55:08;;;;;;;3.40;3.10;;;12.50;67.20;;;;;;5051430;28;20185;-84
2022/12/29 07:57:34;;;;;;;4.00;2.90;;;12.50;66.70;;;;;;5075020;28;20228;-85
2022/12/29 08:00:00;;;;;;;3.27;2.63;;;12.50;67.60;;;;;;5069378;28;20209;-84
2022/12/29 08:02:26;;;;;;;3.70;2.97;;;12.50;67.40;;;;;;5081522;28;20195;-85
2022/12/29 08:04:51;;;;;;;3.77;3.03;;;12.40;67.30;;;;;;5074387;28;20272;-84
2022/12/29 08:07:17;;;;;;;4.40;2.80;;;12.40;66.90;;;;;;5079905;28;20215;-85
2022/12/29 08:09:43;;;;;;;3.67;2.67;;;12.50;66.90;;;;;;5076590;28;20774;-86
2022/12/29 08:12:10;;;;;;;3.03;2.80;;;12.50;66.40;;;;;;5073648;28;20188;-85
2022/12/29 08:14:36;;;;;;;3.00;2.67;;;12.60;67.10;;;;;;5069712;28;20188;-84
2022/12/29 08:17:02;;;;;;;2.73;2.53;;;12.60;67.80;;;;;;5071436;28;20212;-86
2022/12/29 08:19:28;;;;;;;5.53;2.70;;;12.60;66.40;;;;;;5079244;28;20270;-85
2022/12/29 08:21:53;;;;;;;4.10;2.93;;;12.60;66.60;;;;;;5080789;28;20190;-86
2022/12/29 08:24:19;;;;;;;4.40;2.80;;;12.60;66.40;;;;;;5075453;28;20179;-84
2022/12/29 08:26:45;;;;;;;4.23;3.03;;;12.70;65.90;;;;;;5085799;28;20551;-84
2022/12/29 08:29:11;;;;;;;3.47;3.00;;;12.80;66.00;;;;;;5079479;28;20186;-85
2022/12/29 08:31:37;;;;;;;2.70;2.50;;;12.70;67.50;;;;;;5070752;28;20188;-84
2022/12/29 08:34:03;;;;;;;2.83;2.63;;;12.70;67.00;;;;;;5083219;28;20395;-84
2022/12/29 08:36:30;;;;;;;2.83;2.60;;;12.70;66.50;;;;;;5082111;28;20209;-84
2022/12/29 08:38:56;;;;;;;2.87;2.57;;;12.80;66.20;;;;;;5081316;28;20241;-86
2022/12/29 08:41:22;;;;;;;3.03;2.70;;;12.80;66.70;;;;;;5072995;28;20202;-84
2022/12/29 08:43:48;;;;;;;4.17;2.70;;;12.80;66.50;;;;;;5073629;28;20275;-84
2022/12/29 08:46:15;;;;;;;3.67;2.90;;;12.80;67.20;;;;;;5081387;28;20211;-84
2022/12/29 08:48:41;;;;;;;3.07;2.73;;;12.70;66.50;;;;;;5074510;28;20248;-83
2022/12/29 08:51:07;;;;;;;3.70;2.90;;;12.80;66.60;;;;;;5073338;28;20616;-84
2022/12/29 08:53:34;;;;;;;3.50;2.63;;;12.80;67.30;;;;;;5075268;28;20179;-85
2022/12/29 08:56:00;;;;;;;2.80;2.60;;;12.90;66.30;;;;;;5083779;28;20232;-84
2022/12/29 08:58:27;;;;;;;3.57;2.70;;;12.90;66.70;;;;;;5082921;28;20255;-85
2022/12/29 09:00:54;;;;;;;3.40;2.80;;;12.90;66.90;;;;;;5077816;28;20212;-84
2022/12/29 09:03:21;;;;;;;3.50;2.60;;;12.90;66.90;;;;;;5080146;28;20197;-84
2022/12/29 09:05:49;;;;;;;4.47;2.70;;;12.90;66.90;;;;;;5069288;28;20183;-86
2022/12/29 09:08:14;;;;;;;7.03;2.63;;;12.80;66.40;;;;;;5071269;28;20217;-85
2022/12/29 09:10:40;;;;;;;3.87;2.97;;;12.80;67.40;;;;;;5070054;28;20216;-86
2022/12/29 09:13:06;;;;;;;3.87;2.70;;;12.80;67.10;;;;;;5090454;28;20170;-87
2022/12/29 09:15:32;;;;;;;5.50;2.90;;;12.80;67.80;;;;;;5080301;28;20262;-85
2022/12/29 09:17:58;;;;;;;7.20;4.00;;;12.90;66.80;;;;;;5083526;28;20187;-86
2022/12/29 09:20:23;;;;;;;2.97;2.70;;;13.00;66.30;;;;;;5084075;28;20228;-84
2022/12/29 09:22:49;;;;;;;3.17;2.87;;;12.90;67.90;;;;;;5070086;28;20187;-83
2022/12/29 09:25:17;;;;;;;2.90;2.47;;;13.00;68.10;;;;;;5074268;28;20717;-85
2022/12/29 09:27:43;;;;;;;3.40;2.63;;;12.90;68.10;;;;;;5071158;28;20197;-85
2022/12/29 09:30:11;;;;;;;4.37;2.80;;;13.00;68.10;;;;;;5071273;28;20205;-85
2022/12/29 09:32:37;;;;;;;3.30;2.50;;;13.10;69.50;;;;;;5067485;28;20895;-84
2022/12/29 09:35:03;;;;;;;4.23;2.70;;;13.20;68.20;;;;;;5074633;28;20189;-84
2022/12/29 09:37:29;;;;;;;3.13;2.40;;;13.20;68.80;;;;;;5072575;28;20240;-83
2022/12/29 09:39:55;;;;;;;2.90;2.43;;;13.20;69.10;;;;;;5084174;28;20620;-84
2022/12/29 09:42:29;;;;;;;3.63;2.37;;;13.20;68.40;;;;;;5073478;28;20303;-84
2022/12/29 09:45:03;;;;;;;4.30;2.77;;;13.30;69.00;;;;;;5085811;28;20218;-85
2022/12/29 09:47:29;;;;;;;3.17;2.70;;;13.30;69.30;;;;;;5085726;28;20190;-84
2022/12/29 09:50:16;;;;;;;2.67;2.20;;;13.30;68.80;;;;;;5079180;28;20214;-86
2022/12/29 09:52:52;;;;;;;2.87;2.67;;;13.30;69.10;;;;;;5066501;28;20202;-87
2022/12/29 09:55:23;;;;;;;4.10;2.60;;;13.50;70.20;;;;;;5072816;28;20191;-85
2022/12/29 09:58:10;;;;;;;2.93;2.50;;;13.70;68.90;;;;;;5077354;28;20187;-87
2022/12/29 10:00:53;;;;;;;2.47;2.20;;;13.60;70.70;;;;;;5079688;28;20214;-86
2022/12/29 10:03:22;;;;;;;3.83;2.97;;;13.70;69.30;;;;;;5076685;28;20194;-87
2022/12/29 10:06:11;;;;;;;4.80;3.03;;;13.70;70.90;;;;;;5089194;28;20248;-86
2022/12/29 10:08:57;;;;;;;2.77;2.50;;;13.60;71.80;;;;;;5078277;28;20208;-85
2022/12/29 10:11:47;;;;;;;2.77;2.43;;;13.60;71.60;;;;;;5079585;28;20234;-85
2022/12/29 10:14:47;;;;;;;4.77;2.63;;;13.50;73.90;;;;;;5085883;28;20219;-86
2022/12/29 10:17:47;;;;;;;4.27;2.70;;;13.30;74.90;;;;;;5064954;28;20281;-87
2022/12/29 10:20:37;;;;;;;3.63;2.80;;;13.20;75.40;;;;;;5079335;28;20220;-86
2022/12/29 10:23:24;;;;;;;2.90;2.70;;;13.10;77.10;;;;;;5091583;28;20183;-85
2022/12/29 10:25:56;;;;;;;3.00;2.67;;;13.10;77.20;;;;;;5080326;28;20191;-86
2022/12/29 10:28:42;;;;;;;3.00;2.70;;;13.20;77.50;;;;;;5075835;28;20709;-86
2022/12/29 10:31:32;;;;;;;2.93;2.70;;;13.10;77.50;;;;;;5076632;28;20215;-84
2022/12/29 10:34:01;;;;;;;3.07;2.40;;;13.30;76.70;;;;;;5087366;28;20292;-85
2022/12/29 10:36:43;;;;;;;4.13;2.73;;;13.40;74.50;;;;;;5075041;28;20739;-86
2022/12/29 10:39:23;;;;;;;2.73;2.40;;;13.50;73.40;;;;;;5083966;28;20185;-87
2022/12/29 10:41:54;;;;;;;2.63;2.43;;;13.50;74.00;;;;;;5081861;28;20197;-85
2022/12/29 10:44:21;;;;;;;2.73;2.53;;;13.50;74.00;;;;;;5078095;28;20186;-86
2022/12/29 10:47:02;;;;;;;2.87;2.67;;;13.40;74.60;;;;;;5065629;28;20193;-87
2022/12/29 10:49:30;;;;;;;2.60;2.40;;;13.40;73.70;;;;;;5083553;28;20265;-85
2022/12/29 10:52:02;;;;;;;2.67;2.47;;;13.40;74.50;;;;;;5076061;28;20227;-87
2022/12/29 10:54:32;;;;;;;4.70;2.70;;;13.30;74.80;;;;;;5079861;28;20194;-87
2022/12/29 10:57:17;;;;;;;2.53;2.37;;;13.30;75.10;;;;;;5090922;28;20206;-86
2022/12/29 10:59:43;;;;;;;2.73;2.53;;;13.30;75.10;;;;;;5085085;28;20262;-86
2022/12/29 11:02:11;;;;;;;3.87;3.00;;;13.40;74.50;;;;;;5083844;28;20194;-86
2022/12/29 11:04:46;;;;;;;2.67;2.47;;;13.60;73.40;;;;;;5086648;28;20241;-86
2022/12/29 11:07:15;;;;;;;3.10;2.83;;;13.70;72.80;;;;;;5078955;28;20194;-85
2022/12/29 11:09:42;;;;;;;3.23;2.70;;;13.80;73.10;;;;;;5081099;28;20227;-87
2022/12/29 11:12:28;;;;;;;2.70;2.50;;;13.90;71.60;;;;;;5082990;28;20445;-86
2022/12/29 11:15:15;;;;;;;2.73;2.30;;;14.00;72.40;;;;;;5074990;28;20253;-86
2022/12/29 11:17:57;;;;;;;3.43;2.30;;;14.00;71.00;;;;;;5096881;28;20205;-86
2022/12/29 11:20:34;;;;;;;3.47;2.50;;;14.10;70.30;;;;;;5085574;28;20200;-87
2022/12/29 11:23:02;;;;;;;3.97;2.80;;;14.20;71.00;;;;;;5083799;28;20165;-87
2022/12/29 11:25:28;;;;;;;10.63;3.23;;;14.40;68.90;;;;;;5082293;28;20235;-87
2022/12/29 11:28:14;;;;;;;4.33;2.90;;;14.70;68.60;;;;;;5081227;28;20224;-88
2022/12/29 11:30:40;;;;;;;3.53;2.87;;;14.50;70.30;;;;;;5073514;28;20263;-87
2022/12/29 11:33:06;;;;;;;3.83;2.80;;;14.50;69.50;;;;;;5081858;28;20187;-86
2022/12/29 11:35:34;;;;;;;3.17;2.53;;;14.40;69.60;;;;;;5062852;28;20674;-87
2022/12/29 11:38:01;;;;;;;3.40;2.57;;;14.50;68.40;;;;;;5079198;28;20191;-85
2022/12/29 11:40:28;;;;;;;3.83;2.80;;;14.40;68.70;;;;;;5071661;28;20200;-87
2022/12/29 11:43:04;;;;;;;5.10;2.80;;;14.50;69.30;;;;;;5079361;28;20198;-86
2022/12/29 11:45:34;;;;;;;4.17;2.70;;;14.50;69.10;;;;;;5080761;28;20198;-86
2022/12/29 11:48:09;;;;;;;3.57;2.97;;;14.20;69.10;;;;;;5076408;28;20203;-87
2022/12/29 11:50:39;;;;;;;3.00;2.63;;;14.00;70.80;;;;;;5085516;28;20256;-86
2022/12/29 11:53:19;;;;;;;3.47;2.63;;;14.00;70.20;;;;;;5088368;28;20194;-85
2022/12/29 11:55:52;;;;;;;4.13;2.60;;;14.00;71.10;;;;;;5078625;28;20183;-86
2022/12/29 11:58:18;;;;;;;3.57;2.10;;;14.10;69.70;;;;;;5079065;28;20205;-84
2022/12/29 12:00:45;;;;;;;3.20;2.63;;;14.20;69.20;;;;;;5084255;28;20195;-86
2022/12/29 12:03:19;;;;;;;4.30;2.83;;;14.30;68.60;;;;;;5078129;28;20209;-86
2022/12/29 12:05:56;;;;;;;2.27;2.13;;;14.20;67.80;;;;;;5079320;28;20283;-86
2022/12/29 12:08:33;;;;;;;2.00;1.90;;;14.20;67.90;;;;;;5077539;28;20185;-85
2022/12/29 12:11:20;;;;;;;2.00;1.90;;;14.30;67.40;;;;;;5068905;28;20227;-87
2022/12/29 12:14:00;;;;;;;1.90;1.80;;;14.40;68.00;;;;;;5087469;28;20296;-85
2022/12/29 12:16:33;;;;;;;1.80;1.70;;;14.40;67.30;;;;;;5078009;28;20266;-87
2022/12/29 12:19:09;;;;;;;2.73;1.83;;;14.30;66.80;;;;;;5084543;28;20184;-87
2022/12/29 12:21:43;;;;;;;1.90;1.80;;;14.10;68.50;;;;;;5079462;28;20200;-84
2022/12/29 12:24:30;;;;;;;2.20;1.80;;;13.90;68.30;;;;;;5074590;28;20249;-87
2022/12/29 12:27:21;;;;;;;1.97;1.80;;;13.90;68.70;;;;;;5074577;28;20196;-85
2022/12/29 12:30:01;;;;;;;2.63;2.20;;;13.90;69.30;;;;;;5064396;28;20355;-87
2022/12/29 12:32:46;;;;;;;2.20;2.00;;;13.70;69.50;;;;;;5088996;28;20183;-88
2022/12/29 12:35:14;;;;;;;3.40;2.20;;;13.70;70.70;;;;;;5091164;28;20179;-90
2022/12/29 12:38:11;;;;;;;2.30;2.00;;;13.90;70.00;;;;;;5090610;28;20219;-89
2022/12/29 12:40:52;;;;;;;2.20;1.90;;;13.80;70.30;;;;;;5083671;28;20200;-85
2022/12/29 12:43:38;;;;;;;3.77;2.23;;;13.70;71.10;;;;;;5094378;28;20209;-86
2022/12/29 12:46:18;;;;;;;2.67;2.00;;;13.80;72.10;;;;;;5072704;28;20209;-87
2022/12/29 12:49:20;;;;;;;2.10;2.00;;;13.70;73.10;;;;;;5074326;28;20193;-87
2022/12/29 12:52:06;;;;;;;3.33;2.10;;;13.70;73.60;;;;;;5076335;28;20467;-87
2022/12/29 12:55:02;;;;;;;2.87;2.47;;;13.80;73.40;;;;;;5067601;28;20270;-88
2022/12/29 12:57:52;;;;;;;2.40;2.20;;;13.70;73.50;;;;;;5083035;28;20203;-86
2022/12/29 13:00:23;;;;;;;2.83;1.90;;;13.80;73.10;;;;;;5082608;28;20218;-85
2022/12/29 13:02:51;;;;;;;2.33;2.13;;;13.70;73.90;;;;;;5082901;28;20665;-86
2022/12/29 13:05:26;;;;;;;3.20;2.20;;;13.70;73.70;;;;;;5082180;28;20198;-86
2022/12/29 13:08:19;;;;;;;2.43;2.10;;;13.60;74.00;;;;;;5077777;28;20202;-88
2022/12/29 13:10:51;;;;;;;4.63;2.40;;;13.60;75.00;;;;;;5084684;28;20220;-87
2022/12/29 13:13:38;;;;;;;2.27;2.10;;;13.70;73.60;;;;;;5080409;28;20187;-87
2022/12/29 13:16:47;;;;;;;2.80;2.13;;;13.60;73.10;;;;;;5080372;28;20283;-85
2022/12/29 13:19:36;;;;;;;2.50;2.30;;;13.70;73.50;;;;;;5077928;28;20201;-87
2022/12/29 13:22:20;;;;;;;2.60;2.27;;;13.50;75.80;;;;;;5082886;28;20189;-84
2022/12/29 13:25:13;;;;;;;2.03;1.90;;;13.50;75.20;;;;;;5060797;28;20197;-86
2022/12/29 13:28:08;;;;;;;2.43;2.23;;;13.30;77.20;;;;;;5082892;28;20201;-87
2022/12/29 13:31:04;;;;;;;2.10;2.00;;;13.20;80.70;;;;;;5086807;28;20201;-84
2022/12/29 13:33:33;;;;;;;2.90;2.00;;;13.00;81.20;;;;;;5085171;28;20196;-83
2022/12/29 13:36:01;;;;;;;2.07;1.90;;;12.90;83.40;;;;;;5086315;28;20359;-87
2022/12/29 13:38:39;;;;;;;3.03;1.70;;;12.70;84.00;;;;;;5085359;28;20197;-86
2022/12/29 13:41:16;;;;;;;1.93;1.83;;;12.70;85.80;;;;;;5084858;28;20752;-87
2022/12/29 13:43:46;;;;;;;1.87;1.67;;;12.50;89.60;;;;;;5068919;28;20195;-85